Time;durP1;ratioP1;P1;durP2;ratioP2;P2;SDS_P1;SDS_P2;PMS_P1;PMS_P2;Temp;Humidity;BMP_temperature;BMP_pressure;BME280_temperature;BME280_humidity;BME280_pressure;Samples;Min_cycle;Max_cycle;Signal;HPM_P1;HPM_P2
2022/06/15 00:01:18;;;;;;;;;3.00;3.00;;;;;24.73;49.67;101278.63;5076700;28;45311;-79
2022/06/15 00:03:44;;;;;;;;;5.50;4.00;;;;;24.67;49.39;101277.75;5078092;28;45280;-79
2022/06/15 00:06:18;;;;;;;;;4.00;4.00;;;;;24.67;49.60;101270.69;5078086;28;45247;-79
2022/06/15 00:08:47;;;;;;;;;6.00;4.00;;;;;24.64;49.45;101278.66;5077771;28;45583;-79
2022/06/15 00:11:15;;;;;;;;;4.50;4.00;;;;;24.58;50.67;101270.72;5077927;28;45579;-81
2022/06/15 00:13:42;;;;;;;;;4.50;4.50;;;;;24.50;50.54;101275.19;5066885;28;45401;-80
2022/06/15 00:16:08;;;;;;;;;4.00;4.00;;;;;24.46;51.81;101265.53;5085555;28;45441;-78
2022/06/15 00:18:35;;;;;;;;;4.50;4.00;;;;;24.43;52.00;101277.00;5079094;27;46283;-81
2022/06/15 00:21:01;;;;;;;;;3.25;3.25;;;;;24.38;52.16;101274.38;5077942;27;45766;-80
2022/06/15 00:23:29;;;;;;;;;5.00;4.00;;;;;24.36;51.66;101283.22;5077863;28;45353;-80
2022/06/15 00:25:55;;;;;;;;;4.00;3.00;;;;;24.35;51.97;101277.03;5077761;27;45568;-80
2022/06/15 00:28:21;;;;;;;;;4.25;4.00;;;;;24.30;52.40;101270.88;5059431;28;46121;-80
2022/06/15 00:30:51;;;;;;;;;4.00;4.00;;;;;24.25;52.22;101270.00;5077742;27;45768;-80
2022/06/15 00:33:21;;;;;;;;;5.00;5.00;;;;;24.24;52.60;101278.88;5077325;28;45428;-80
2022/06/15 00:35:59;;;;;;;;;3.50;3.00;;;;;24.20;53.16;101285.91;5077369;27;45586;-80
2022/06/15 00:38:32;;;;;;;;;5.00;5.00;;;;;24.18;52.91;101290.34;5077204;27;46074;-81
2022/06/15 00:40:58;;;;;;;;;5.50;4.00;;;;;24.07;53.41;101278.94;5076383;28;45858;-80
2022/06/15 00:43:35;;;;;;;;;4.50;4.00;;;;;24.07;53.98;101281.59;5076896;27;45224;-81
2022/06/15 00:46:38;;;;;;;;;2.75;2.75;;;;;24.05;53.65;101286.84;5077486;27;45228;-80
2022/06/15 00:49:13;;;;;;;;;3.00;3.00;;;;;24.01;54.66;101289.53;5076980;28;46300;-81
2022/06/15 00:51:40;;;;;;;;;4.25;4.25;;;;;23.97;54.26;101277.22;5077331;28;45233;-80
2022/06/15 00:54:07;;;;;;;;;5.00;4.00;;;;;23.92;54.56;101275.41;5076870;27;45371;-81
2022/06/15 00:56:35;;;;;;;;;5.00;5.00;;;;;23.95;54.44;101279.84;5077509;28;45579;-80
2022/06/15 00:59:12;;;;;;;;;4.50;4.00;;;;;23.91;55.23;101272.78;5077053;27;46242;-79
2022/06/15 01:01:39;;;;;;;;;4.00;4.00;;;;;23.93;54.38;101281.56;5077240;27;45643;-79
2022/06/15 01:04:05;;;;;;;;;4.25;4.25;;;;;23.90;55.55;101292.19;5077063;28;45339;-79
2022/06/15 01:06:37;;;;;;;;;3.00;3.00;;;;;23.87;55.55;101285.13;5077577;28;45494;-80
2022/06/15 01:09:26;;;;;;;;;4.00;4.00;;;;;23.87;55.33;101289.53;5077028;27;45568;-79
2022/06/15 01:12:30;;;;;;;;;4.25;3.75;;;;;23.84;55.02;101284.25;5076927;28;45704;-79
2022/06/15 01:15:23;;;;;;;;;5.00;5.00;;;;;23.77;56.09;101289.56;5079453;28;45284;-80
2022/06/15 01:18:15;;;;;;;;;6.75;4.00;;;;;23.72;56.20;101283.41;5077979;27;45221;-79
2022/06/15 01:21:17;;;;;;;;;3.00;3.00;;;;;23.67;56.82;101282.53;5077109;28;45660;-79
2022/06/15 01:24:36;;;;;;;;;4.25;3.00;;;;;23.63;56.85;101278.13;5055195;28;45631;-80
2022/06/15 01:27:55;;;;;;;;;4.00;3.00;;;;;23.56;57.51;101273.75;5021545;28;45542;-79
2022/06/15 01:30:33;;;;;;;;;5.25;3.75;;;;;23.53;57.67;101284.31;5052276;28;45199;-79
2022/06/15 01:33:07;;;;;;;;;6.00;4.75;;;;;23.49;58.08;101278.16;5076325;27;45629;-79
2022/06/15 01:35:45;;;;;;;;;5.00;4.00;;;;;23.48;57.95;101279.03;5076641;28;45424;-79
2022/06/15 01:38:37;;;;;;;;;5.25;2.25;;;;;23.44;58.64;101283.47;5077636;27;45344;-80
2022/06/15 01:41:36;;;;;;;;;4.25;3.75;;;;;23.43;58.68;101276.41;5077845;28;45228;-79
2022/06/15 01:44:18;;;;;;;;;3.50;3.50;;;;;23.42;58.45;101274.66;5065152;27;45358;-79
2022/06/15 01:46:46;;;;;;;;;7.00;5.00;;;;;23.41;58.63;101280.81;5076342;28;45343;-79
2022/06/15 01:49:30;;;;;;;;;4.25;3.50;;;;;23.36;58.55;101266.75;5058042;28;45395;-79
2022/06/15 01:52:00;;;;;;;;;3.00;3.00;;;;;23.24;59.41;101251.75;5076529;28;45374;-79
2022/06/15 01:54:36;;;;;;;;;5.50;4.50;;;;;23.24;58.89;101262.31;5076210;28;45790;-81
2022/06/15 01:57:04;;;;;;;;;2.25;2.25;;;;;23.21;59.51;101258.81;5076171;28;45235;-81
2022/06/15 01:59:29;;;;;;;;;4.00;4.00;;;;;23.19;59.48;101267.63;5076723;28;45302;-81
2022/06/15 02:02:12;;;;;;;;;6.50;4.25;;;;;23.15;60.12;101265.84;5076597;28;45548;-80
2022/06/15 02:04:50;;;;;;;;;3.75;3.00;;;;;23.13;59.85;101262.31;5076093;27;45248;-80
2022/06/15 02:07:22;;;;;;;;;5.00;4.00;;;;;23.08;60.07;101258.78;5081145;28;45417;-81
2022/06/15 02:09:59;;;;;;;;;4.00;4.00;;;;;23.07;60.08;101262.28;5083134;27;45360;-81
2022/06/15 02:12:35;;;;;;;;;2.75;2.75;;;;;23.06;60.45;101259.66;5079198;28;45235;-80
2022/06/15 02:15:08;;;;;;;;;4.00;4.00;;;;;23.02;60.78;101258.78;5076052;28;45407;-81
2022/06/15 02:17:44;;;;;;;;;4.00;2.50;;;;;22.97;61.21;101253.50;5076287;28;45387;-80
2022/06/15 02:20:16;;;;;;;;;4.00;4.00;;;;;22.93;61.47;101248.22;5076069;28;45378;-80
2022/06/15 02:22:45;;;;;;;;;4.00;4.00;;;;;22.93;61.60;101258.78;5076553;28;45452;-80
2022/06/15 02:25:18;;;;;;;;;3.25;2.00;;;;;22.87;61.72;101254.38;5078256;28;46059;-80
2022/06/15 02:27:45;;;;;;;;;5.25;4.50;;;;;22.84;61.71;101246.44;5061190;28;45761;-80
2022/06/15 02:30:17;;;;;;;;;4.00;4.00;;;;;22.79;61.89;101245.56;5079421;28;45393;-80
2022/06/15 02:32:45;;;;;;;;;4.25;4.25;;;;;22.79;62.24;101243.81;5079723;28;45244;-80
2022/06/15 02:35:11;;;;;;;;;5.00;3.75;;;;;22.83;61.40;101264.06;5079501;27;45350;-80
2022/06/15 02:37:37;;;;;;;;;4.25;4.00;;;;;22.80;62.24;101252.59;5080131;28;45409;-80
2022/06/15 02:40:03;;;;;;;;;6.50;4.25;;;;;22.81;62.21;101254.34;5079826;28;45320;-80
2022/06/15 02:42:32;;;;;;;;;4.00;4.00;;;;;22.78;62.17;101257.03;5079670;28;45304;-81
2022/06/15 02:45:20;;;;;;;;;4.75;4.75;;;;;22.75;62.70;101247.31;5060761;28;47597;-80
2022/06/15 02:47:46;;;;;;;;;3.50;3.50;;;;;22.65;62.53;101232.34;5078851;28;45327;-79
2022/06/15 02:50:17;;;;;;;;;4.00;4.00;;;;;22.73;62.99;101246.47;5078966;28;45366;-80
2022/06/15 02:52:48;;;;;;;;;4.25;4.00;;;;;22.73;62.82;101243.81;5079550;27;45241;-82
2022/06/15 02:55:17;;;;;;;;;4.25;4.00;;;;;22.68;62.71;101237.63;5078919;28;46348;-80
2022/06/15 02:57:50;;;;;;;;;5.00;5.00;;;;;22.67;62.61;101249.97;5079127;28;45826;-81
2022/06/15 03:00:18;;;;;;;;;5.00;5.00;;;;;22.62;63.36;101237.63;5079550;27;45217;-80
2022/06/15 03:02:44;;;;;;;;;6.00;5.00;;;;;22.61;63.29;101234.09;5083780;27;45401;-80
2022/06/15 03:05:09;;;;;;;;;4.25;4.00;;;;;22.60;62.98;101245.53;5086583;28;45321;-81
2022/06/15 03:07:35;;;;;;;;;7.25;6.00;;;;;22.50;63.56;101244.66;5083478;27;45402;-80
2022/06/15 03:10:00;;;;;;;;;5.00;5.00;;;;;22.45;63.79;101240.25;5079392;28;45334;-80
2022/06/15 03:12:26;;;;;;;;;8.00;7.00;;;;;22.40;64.26;101246.38;5061264;28;45583;-80
2022/06/15 03:14:52;;;;;;;;;6.00;5.00;;;;;22.33;64.06;101241.94;5078185;28;45380;-80
2022/06/15 03:17:17;;;;;;;;;6.00;4.00;;;;;22.26;64.74;101237.50;5079112;28;45426;-80
2022/06/15 03:19:43;;;;;;;;;4.50;4.50;;;;;22.28;64.28;101246.31;5078815;28;45348;-80
2022/06/15 03:22:09;;;;;;;;;4.00;3.75;;;;;22.35;64.28;101252.47;5089521;27;45284;-80
2022/06/15 03:24:35;;;;;;;;;6.50;5.00;;;;;22.35;64.60;101257.75;5078977;27;45497;-81
2022/06/15 03:27:00;;;;;;;;;6.50;4.75;;;;;22.16;64.58;101227.78;5078528;27;45239;-81
2022/06/15 03:29:26;;;;;;;;;6.25;5.00;;;;;22.35;65.03;101257.75;5078627;27;45751;-81
2022/06/15 03:31:51;;;;;;;;;6.00;5.00;;;;;22.34;64.78;101256.00;5078578;28;45355;-79
2022/06/15 03:34:17;;;;;;;;;6.00;6.00;;;;;22.31;65.07;101261.25;5078581;28;46236;-81
2022/06/15 03:36:42;;;;;;;;;5.25;5.25;;;;;22.28;64.66;101262.13;5077600;28;45256;-80
2022/06/15 03:39:08;;;;;;;;;4.75;4.00;;;;;22.24;65.24;101263.88;5078996;27;45361;-80
2022/06/15 03:41:34;;;;;;;;;3.00;2.00;;;;;22.26;65.18;101261.22;5080942;27;45371;-80
2022/06/15 03:43:59;;;;;;;;;5.25;5.25;;;;;22.26;65.08;101255.97;5078266;27;45661;-80
2022/06/15 03:46:25;;;;;;;;;8.00;5.00;;;;;22.29;65.53;101250.72;5078225;28;45437;-80
2022/06/15 03:48:51;;;;;;;;;4.00;4.00;;;;;22.34;65.03;101251.63;5078601;28;45531;-77
2022/06/15 03:51:16;;;;;;;;;6.25;6.25;;;;;22.36;65.04;101255.13;5078945;28;45446;-79
2022/06/15 03:53:42;;;;;;;;;7.50;6.00;;;;;22.31;65.10;101242.78;5077948;27;46519;-79
2022/06/15 03:56:08;;;;;;;;;6.00;5.50;;;;;22.36;64.88;101248.97;5078832;28;45444;-80
2022/06/15 03:58:33;;;;;;;;;9.25;5.25;;;;;22.34;64.52;101241.06;5084326;28;45214;-80
2022/06/15 04:00:59;;;;;;;;;5.50;4.25;;;;;22.35;64.95;101252.47;5083339;28;45150;-81
2022/06/15 04:03:25;;;;;;;;;6.00;5.25;;;;;22.34;64.96;101253.34;5084119;28;46210;-79
2022/06/15 04:05:54;;;;;;;;;4.25;4.25;;;;;22.33;64.95;101251.59;5080292;27;45288;-80
2022/06/15 04:08:35;;;;;;;;;6.50;5.00;;;;;22.35;64.95;101253.34;5078344;28;45423;-79
2022/06/15 04:11:06;;;;;;;;;4.75;4.75;;;;;22.33;64.58;101259.50;5078866;27;45358;-79
2022/06/15 04:13:33;;;;;;;;;4.25;4.25;;;;;22.31;64.92;101258.63;5078196;28;45436;-79
2022/06/15 04:15:58;;;;;;;;;5.25;5.25;;;;;22.31;65.17;101258.63;5077544;28;45639;-80
2022/06/15 04:18:24;;;;;;;;;7.75;6.00;;;;;22.30;64.96;101255.09;5059605;28;45246;-79
2022/06/15 04:20:50;;;;;;;;;6.50;6.50;;;;;22.30;64.90;101243.69;5078397;28;45632;-79
2022/06/15 04:23:19;;;;;;;;;5.50;5.00;;;;;22.29;64.86;101252.47;5077863;27;45503;-79
2022/06/15 04:25:50;;;;;;;;;6.00;4.50;;;;;22.27;64.36;101252.44;5077675;27;45740;-79
2022/06/15 04:28:17;;;;;;;;;4.50;4.50;;;;;22.25;65.01;101256.84;5078045;28;45724;-79
2022/06/15 04:30:43;;;;;;;;;3.00;3.00;;;;;22.25;65.46;101254.19;5078017;28;45403;-79
2022/06/15 04:33:11;;;;;;;;;5.00;5.00;;;;;22.23;65.50;101263.88;5077121;28;46213;-79
2022/06/15 04:35:37;;;;;;;;;6.50;6.50;;;;;22.20;65.35;101256.81;5077312;28;45669;-80
2022/06/15 04:38:03;;;;;;;;;9.25;6.50;;;;;22.26;65.44;101267.41;5077170;28;45400;-79
2022/06/15 04:40:30;;;;;;;;;6.50;5.75;;;;;22.24;65.55;101268.28;5078603;28;45467;-79
2022/06/15 04:42:56;;;;;;;;;6.75;6.00;;;;;22.19;64.80;101257.69;5078543;27;45985;-79
2022/06/15 04:45:22;;;;;;;;;7.00;5.00;;;;;22.22;65.63;101264.75;5077280;27;45202;-78
2022/06/15 04:47:48;;;;;;;;;6.00;6.00;;;;;22.22;65.58;101275.31;5076037;27;45343;-78
2022/06/15 04:50:15;;;;;;;;;6.50;6.00;;;;;22.17;65.68;101274.38;5081576;27;45656;-79
2022/06/15 04:52:45;;;;;;;;;7.50;5.00;;;;;22.18;65.38;101273.53;5064843;28;47332;-79
2022/06/15 04:55:15;;;;;;;;;4.75;4.75;;;;;22.16;65.76;101278.81;5078906;27;45788;-79
2022/06/15 04:57:41;;;;;;;;;5.25;5.00;;;;;22.16;65.73;101276.16;5077341;28;45417;-80
2022/06/15 05:00:11;;;;;;;;;6.75;4.00;;;;;22.19;65.42;101277.91;5077244;28;45602;-79
2022/06/15 05:02:37;;;;;;;;;6.50;5.50;;;;;22.21;65.40;101276.19;5077104;27;45271;-79
2022/06/15 05:05:03;;;;;;;;;5.75;5.75;;;;;22.19;65.92;101272.66;5077021;28;45376;-79
2022/06/15 05:07:29;;;;;;;;;6.75;6.75;;;;;22.15;65.67;101278.78;5076836;28;45421;-79
2022/06/15 05:09:56;;;;;;;;;8.00;8.00;;;;;22.15;65.30;101287.59;5077427;28;45547;-79
2022/06/15 05:12:21;;;;;;;;;7.50;6.25;;;;;22.10;65.79;101269.09;5077571;28;46040;-79
2022/06/15 05:14:47;;;;;;;;;6.75;6.00;;;;;22.14;65.66;101275.28;5076643;28;45504;-79
2022/06/15 05:17:18;;;;;;;;;6.50;6.50;;;;;22.15;65.61;101268.22;5075911;28;45407;-79
2022/06/15 05:19:44;;;;;;;;;6.00;6.00;;;;;22.18;66.27;101269.16;5076549;28;45512;-80
2022/06/15 05:22:11;;;;;;;;;9.00;6.50;;;;;22.20;65.88;101274.41;5075843;28;46097;-79
2022/06/15 05:24:37;;;;;;;;;10.75;6.75;;;;;22.16;65.94;101257.69;5075883;27;45909;-79
2022/06/15 05:27:03;;;;;;;;;12.00;8.00;;;;;22.22;66.06;101265.63;5075959;28;45502;-79
2022/06/15 05:29:29;;;;;;;;;7.75;7.25;;;;;22.22;65.78;101270.03;5076126;28;45573;-79
2022/06/15 05:31:56;;;;;;;;;9.00;8.00;;;;;22.23;65.94;101271.81;5075749;27;45218;-79
2022/06/15 05:34:22;;;;;;;;;8.00;7.00;;;;;22.16;65.75;101262.06;5075801;28;45450;-79
2022/06/15 05:36:49;;;;;;;;;7.50;7.50;;;;;22.24;66.11;101270.94;5076786;28;45786;-79
2022/06/15 05:39:15;;;;;;;;;8.00;7.00;;;;;22.20;66.29;101266.50;5083029;28;45532;-79
2022/06/15 05:41:41;;;;;;;;;9.25;7.50;;;;;22.18;66.34;101279.69;5081397;28;46016;-84
2022/06/15 05:46:45;;;;;;;;;5.75;4.25;;;;;22.18;66.47;101282.34;5084970;27;45308;-88
2022/06/15 05:49:11;;;;;;;;;5.25;5.25;;;;;22.09;66.03;101271.72;5080106;28;45224;-80
2022/06/15 05:51:37;;;;;;;;;6.00;6.00;;;;;22.19;66.15;101284.06;5075836;28;46377;-82
2022/06/15 05:54:05;;;;;;;;;8.00;5.75;;;;;22.07;65.74;101260.31;5075798;27;45917;-81
2022/06/15 05:56:33;;;;;;;;;11.00;6.25;;;;;22.21;65.46;101269.13;5075673;28;45525;-86
2022/06/15 05:59:00;;;;;;;;;7.50;6.00;;;;;22.24;65.89;101284.13;5056894;28;45287;-85
2022/06/15 06:01:31;;;;;;;;;6.75;5.75;;;;;22.25;65.58;101285.84;5081334;27;46362;-84
2022/06/15 06:03:57;;;;;;;;;10.50;7.50;;;;;22.27;66.17;101286.75;5086796;28;45358;-84
2022/06/15 06:06:24;;;;;;;;;8.25;6.50;;;;;22.24;65.78;101282.34;5092839;28;45417;-88
2022/06/15 06:08:50;;;;;;;;;6.75;6.50;;;;;22.28;66.01;101285.88;5082151;27;45498;-78
2022/06/15 06:11:16;;;;;;;;;6.75;6.75;;;;;22.26;65.93;101283.22;5086357;28;45178;-80
2022/06/15 06:13:42;;;;;;;;;8.25;7.50;;;;;22.26;65.56;101285.88;5080976;28;45886;-80
2022/06/15 06:16:08;;;;;;;;;7.00;6.00;;;;;22.29;65.86;101287.63;5061630;28;45514;-80
2022/06/15 06:18:34;;;;;;;;;8.75;6.50;;;;;22.31;65.98;101277.06;5080011;28;45328;-78
2022/06/15 06:21:00;;;;;;;;;6.25;6.00;;;;;22.33;65.93;101272.69;5079280;28;46180;-81
2022/06/15 06:23:26;;;;;;;;;8.75;7.00;;;;;22.39;65.44;101275.38;5079299;27;45866;-81
2022/06/15 06:25:53;;;;;;;;;9.00;7.00;;;;;22.41;65.01;101274.53;5061417;28;45464;-78
2022/06/15 06:28:34;;;;;;;;;8.25;7.75;;;;;22.46;65.02;101278.94;5079487;27;45534;-81
2022/06/15 06:31:01;;;;;;;;;6.25;6.00;;;;;22.49;64.96;101277.19;5079501;27;46167;-81
2022/06/15 06:33:29;;;;;;;;;10.75;7.25;;;;;22.49;65.29;101277.19;5078386;28;45838;-81
2022/06/15 06:35:57;;;;;;;;;11.75;10.00;;;;;22.56;64.92;101286.88;5081150;27;45288;-80
2022/06/15 06:38:24;;;;;;;;;9.75;8.75;;;;;22.57;64.91;101285.09;5101506;27;45589;-78
2022/06/15 06:40:51;;;;;;;;;10.75;9.00;;;;;22.55;64.58;101281.59;5094910;27;46221;-79
2022/06/15 06:43:17;;;;;;;;;9.75;9.00;;;;;22.55;64.47;101287.75;5088058;27;45449;-81
2022/06/15 06:45:47;;;;;;;;;10.00;9.00;;;;;22.54;64.64;101287.75;5077505;27;45396;-76
2022/06/15 06:48:13;;;;;;;;;13.50;9.25;;;;;22.57;64.27;101288.63;5092397;27;45817;-79
2022/06/15 06:50:40;;;;;;;;;9.25;6.50;;;;;22.62;64.42;101282.50;5067580;27;47693;-82
2022/06/15 06:53:11;;;;;;;;;7.00;6.75;;;;;22.78;63.86;101286.94;5086247;27;45477;-78
2022/06/15 06:55:37;;;;;;;;;8.00;6.00;;;;;22.84;62.93;101279.00;5080357;28;45347;-85
2022/06/15 06:58:04;;;;;;;;;9.75;8.75;;;;;22.97;62.29;101273.72;5080984;27;45755;-84
2022/06/15 07:00:32;;;;;;;;;9.00;6.25;;;;;22.98;62.12;101268.47;5066064;28;48257;-84
2022/06/15 07:03:00;;;;;;;;;8.50;8.25;;;;;23.07;61.90;101278.13;5078972;28;45429;-81
2022/06/15 07:05:26;;;;;;;;;10.75;9.50;;;;;23.16;62.01;101279.91;5078990;27;45432;-81
2022/06/15 07:07:52;;;;;;;;;9.00;8.25;;;;;23.19;61.89;101286.09;5079587;28;45624;-81
2022/06/15 07:10:18;;;;;;;;;8.75;8.00;;;;;23.18;61.91;101283.44;5089071;27;47062;-81
2022/06/15 07:12:44;;;;;;;;;10.75;7.50;;;;;23.21;61.75;101287.88;5085324;27;45524;-77
2022/06/15 07:15:13;;;;;;;;;7.50;7.50;;;;;23.23;61.62;101292.25;5078488;27;45492;-80
2022/06/15 07:17:40;;;;;;;;;12.50;8.50;;;;;23.16;61.76;101277.28;5061468;28;45563;-79
2022/06/15 07:20:09;;;;;;;;;7.75;7.75;;;;;23.24;61.93;101295.81;5078900;27;46687;-79
2022/06/15 07:22:35;;;;;;;;;7.50;7.00;;;;;23.26;62.04;101301.97;5082146;27;45923;-80
2022/06/15 07:25:02;;;;;;;;;8.25;7.75;;;;;23.27;61.92;101295.81;5078967;28;45528;-81
2022/06/15 07:27:29;;;;;;;;;8.25;7.50;;;;;23.31;62.48;101297.56;5078359;28;45514;-79
2022/06/15 07:29:55;;;;;;;;;10.00;8.00;;;;;23.37;61.60;101305.50;5078586;27;46265;-83
2022/06/15 07:32:21;;;;;;;;;8.75;8.75;;;;;23.37;61.65;101296.66;5092368;27;45674;-82
2022/06/15 07:34:47;;;;;;;;;9.50;8.75;;;;;23.52;61.45;101301.94;5083284;27;45277;-82
2022/06/15 07:37:12;;;;;;;;;8.25;7.25;;;;;23.61;61.07;101311.63;5081041;27;45537;-78
2022/06/15 07:39:39;;;;;;;;;8.25;7.25;;;;;23.70;60.47;101308.09;5089656;27;45461;-80
2022/06/15 07:42:08;;;;;;;;;10.25;6.00;;;;;23.77;60.36;101300.16;5082941;27;45921;-80
2022/06/15 07:44:35;;;;;;;;;9.75;8.25;;;;;23.85;60.24;101299.25;5095198;27;45365;-81
2022/06/15 07:49:55;;;;;;;;;8.25;8.00;;;;;24.07;59.96;101297.47;5079592;27;45492;-78
2022/06/15 07:52:30;;;;;;;;;9.00;7.75;;;;;24.20;59.24;101299.16;5085506;27;45635;-77
2022/06/15 07:54:57;;;;;;;;;9.75;8.00;;;;;24.34;58.92;101299.09;5098642;27;45241;-78
2022/06/15 07:57:23;;;;;;;;;7.25;7.00;;;;;24.47;59.34;101297.28;5098910;27;45573;-79
2022/06/15 07:59:49;;;;;;;;;8.00;8.00;;;;;24.54;58.12;101293.69;5078427;27;47032;-77
2022/06/15 08:02:15;;;;;;;;;4.00;3.75;;;;;24.71;56.93;101292.75;5097966;27;45507;-78
2022/06/15 08:04:41;;;;;;;;;11.75;9.75;;;;;24.84;56.16;101293.56;5098245;27;45352;-77
2022/06/15 08:07:10;;;;;;;;;6.75;6.25;;;;;24.97;55.54;101295.22;5102189;27;45510;-77
2022/06/15 08:09:36;;;;;;;;;8.00;6.75;;;;;25.11;55.26;101287.16;5100342;27;46180;-78
2022/06/15 08:12:23;;;;;;;;;8.75;6.75;;;;;24.98;54.77;101257.25;5098315;27;45365;-79
2022/06/15 08:14:53;;;;;;;;;8.50;7.00;;;;;25.28;54.58;101289.69;5098392;27;45394;-79
2022/06/15 08:17:33;;;;;;;;;7.25;6.50;;;;;25.38;53.67;101293.09;5098365;27;45255;-76
2022/06/15 08:20:10;;;;;;;;;6.25;4.75;;;;;25.41;53.20;101284.28;5097898;27;46383;-77
2022/06/15 08:22:40;;;;;;;;;7.00;6.50;;;;;25.46;52.73;101282.47;5079450;27;45446;-78
2022/06/15 08:25:09;;;;;;;;;7.25;7.25;;;;;25.55;52.73;101285.03;5098006;27;45402;-77
2022/06/15 08:27:36;;;;;;;;;6.00;4.75;;;;;25.59;52.11;101286.75;5079692;27;45607;-77
2022/06/15 08:30:06;;;;;;;;;7.00;6.00;;;;;25.73;52.24;101291.03;5097846;27;45440;-77
2022/06/15 08:32:32;;;;;;;;;9.25;5.75;;;;;25.80;51.11;101282.13;5098021;27;45218;-78
2022/06/15 08:34:58;;;;;;;;;6.25;5.50;;;;;25.79;51.02;101273.28;5098144;27;45276;-78
2022/06/15 08:37:23;;;;;;;;;8.25;7.00;;;;;25.83;50.28;101282.09;5099660;27;45512;-77
2022/06/15 08:39:49;;;;;;;;;6.75;5.00;;;;;25.78;50.02;101287.44;5101985;27;45437;-78
2022/06/15 08:42:32;;;;;;;;;8.50;6.00;;;;;25.69;49.96;101284.91;5101582;27;45324;-78
2022/06/15 08:45:26;;;;;;;;;9.25;5.75;;;;;25.67;50.32;101286.69;5099886;27;45305;-77
2022/06/15 08:48:40;;;;;;;;;7.75;7.75;;;;;25.64;50.66;101279.66;5099058;27;45251;-77
2022/06/15 08:51:23;;;;;;;;;9.00;9.00;;;;;25.60;50.36;101285.88;5020410;27;46069;-77
2022/06/15 08:53:58;;;;;;;;;5.25;5.25;;;;;25.53;50.17;101273.56;5098763;27;45304;-77
2022/06/15 08:56:33;;;;;;;;;9.50;7.00;;;;;25.56;50.06;101272.66;5097470;27;45461;-78
2022/06/15 08:59:32;;;;;;;;;9.00;8.25;;;;;25.56;50.24;101289.44;5097861;27;45239;-77
2022/06/15 09:02:07;;;;;;;;;7.50;7.25;;;;;25.55;49.30;101277.06;5070275;27;46837;-77
2022/06/15 09:04:41;;;;;;;;;8.25;5.50;;;;;25.59;49.58;101275.28;5099362;27;45670;-78
2022/06/15 09:07:49;;;;;;;;;9.00;7.25;;;;;25.63;49.68;101275.25;5101935;27;45242;-77
2022/06/15 09:10:44;;;;;;;;;8.00;6.50;;;;;25.66;49.29;101271.66;5047795;27;45620;-78
2022/06/15 09:13:20;;;;;;;;;7.25;7.25;;;;;25.63;49.68;101275.25;5096410;27;45456;-77
2022/06/15 09:16:10;;;;;;;;;8.00;6.50;;;;;25.61;50.11;101276.13;5097171;27;45776;-78
2022/06/15 09:19:01;;;;;;;;;9.00;8.00;;;;;25.61;50.36;101273.47;5097144;27;45527;-78
2022/06/15 09:21:54;;;;;;;;;8.50;8.00;;;;;25.63;50.65;101274.34;5097133;27;45822;-77
2022/06/15 09:24:34;;;;;;;;;7.25;7.25;;;;;25.60;50.66;101275.25;5096551;27;45433;-78
2022/06/15 09:27:11;;;;;;;;;11.25;8.00;;;;;25.61;50.59;101277.03;5096767;27;45367;-78
2022/06/15 09:29:50;;;;;;;;;10.75;10.50;;;;;25.59;50.41;101280.59;5097211;27;45333;-78
2022/06/15 09:32:32;;;;;;;;;9.25;7.75;;;;;25.57;50.97;101285.88;5100790;27;45247;-78
2022/06/15 09:35:03;;;;;;;;;7.75;7.00;;;;;25.55;50.43;101289.47;5103239;27;46028;-78
2022/06/15 09:37:33;;;;;;;;;11.00;7.25;;;;;25.57;50.11;101290.31;5105662;27;45381;-78
2022/06/15 09:40:00;;;;;;;;;8.00;7.00;;;;;25.53;49.58;101270.94;5100219;27;45401;-77
2022/06/15 09:42:56;;;;;;;;;6.75;6.75;;;;;25.63;50.03;101282.28;5098533;27;46143;-78
2022/06/15 09:45:35;;;;;;;;;8.75;6.25;;;;;25.62;49.60;101280.53;5097369;27;45901;-77
2022/06/15 09:48:31;;;;;;;;;11.00;11.00;;;;;25.64;49.85;101277.00;5096998;27;45338;-77
2022/06/15 09:51:26;;;;;;;;;4.00;4.00;;;;;25.59;47.38;101262.03;5088741;27;45306;-78
2022/06/15 09:54:21;;;;;;;;;8.25;7.00;;;;;25.64;48.79;101277.00;5096831;27;45419;-78
2022/06/15 09:56:49;;;;;;;;;6.50;4.75;;;;;25.61;49.53;101270.81;5096603;27;45306;-78
2022/06/15 09:59:19;;;;;;;;;8.25;7.25;;;;;25.64;47.26;101271.69;5077652;27;45814;-77
2022/06/15 10:01:47;;;;;;;;;6.75;6.75;;;;;25.69;47.92;101276.94;5099346;27;45480;-77
2022/06/15 10:04:23;;;;;;;;;8.25;7.25;;;;;25.69;48.69;101269.00;5099367;27;45268;-77
2022/06/15 10:07:04;;;;;;;;;7.75;7.75;;;;;25.72;49.09;101263.63;5096696;27;46014;-78
2022/06/15 10:09:35;;;;;;;;;8.25;6.75;;;;;25.76;49.20;101275.06;5096149;27;45811;-78
2022/06/15 10:15:12;;;;;;;;;7.00;5.50;;;;;25.80;48.36;101269.75;5095944;27;45336;-77
2022/06/15 10:17:43;;;;;;;;;7.00;6.75;;;;;25.82;48.27;101275.03;5096661;27;45407;-79
2022/06/15 10:20:29;;;;;;;;;8.25;7.25;;;;;25.87;48.94;101274.97;5077354;27;45377;-78
2022/06/15 10:22:56;;;;;;;;;8.75;8.75;;;;;25.89;48.23;101276.69;5096715;27;45323;-78
2022/06/15 10:25:23;;;;;;;;;7.25;6.75;;;;;25.88;48.58;101272.28;5096347;27;45644;-77
2022/06/15 10:27:51;;;;;;;;;7.25;7.00;;;;;25.91;48.53;101276.72;5096253;27;46232;-78
2022/06/15 10:30:25;;;;;;;;;7.75;7.75;;;;;25.94;48.47;101276.66;5103739;27;45736;-78
2022/06/15 10:33:02;;;;;;;;;7.50;7.50;;;;;26.01;47.88;101282.75;5109639;27;45445;-79
2022/06/15 10:35:31;;;;;;;;;9.50;7.50;;;;;26.04;48.00;101282.72;5099234;27;45318;-79
2022/06/15 10:38:01;;;;;;;;;7.00;6.00;;;;;26.11;46.19;101280.03;5096722;27;46246;-78
2022/06/15 10:40:31;;;;;;;;;6.25;6.25;;;;;26.13;46.20;101277.34;5096692;27;45378;-78
2022/06/15 10:43:07;;;;;;;;;7.75;6.25;;;;;26.13;46.31;101274.69;5096336;27;45488;-77
2022/06/15 10:45:36;;;;;;;;;7.25;7.00;;;;;26.18;46.51;101275.53;5097521;27;45495;-78
2022/06/15 10:48:06;;;;;;;;;8.00;7.50;;;;;26.20;46.93;101272.84;5099232;27;46419;-78
2022/06/15 10:50:48;;;;;;;;;5.50;5.50;;;;;26.23;46.46;101270.16;5099576;27;45749;-78
2022/06/15 10:53:45;;;;;;;;;7.50;7.00;;;;;26.26;46.59;101273.63;5099170;27;45228;-78
2022/06/15 11:02:19;;;;;;;;;6.75;6.75;;;;;26.50;47.58;101271.56;5105160;27;45765;-80
2022/06/15 11:04:47;;;;;;;;;8.00;7.50;;;;;26.54;47.04;101270.59;5101863;27;45398;-81
2022/06/15 11:07:29;;;;;;;;;9.50;9.50;;;;;26.53;47.42;101266.16;5100664;27;45242;-79
2022/06/15 11:09:54;;;;;;;;;7.25;6.00;;;;;26.62;47.77;101273.13;5099272;27;45358;-79
2022/06/15 11:12:43;;;;;;;;;7.50;7.50;;;;;26.58;47.50;101261.69;5099213;27;45346;-78
2022/06/15 11:15:21;;;;;;;;;9.75;9.00;;;;;26.70;47.60;101275.69;5098050;27;45335;-79
2022/06/15 11:18:03;;;;;;;;;9.75;8.75;;;;;26.72;47.32;101268.56;5080947;27;45544;-80
2022/06/15 11:20:51;;;;;;;;;11.25;8.25;;;;;26.81;46.53;101271.13;5098811;27;45980;-80
2022/06/15 11:23:29;;;;;;;;;8.50;8.50;;;;;26.86;46.22;101266.59;5098726;27;45410;-79
2022/06/15 11:28:59;;;;;;;;;9.50;7.50;;;;;26.90;46.62;101256.78;5102938;27;45420;-79
2022/06/15 11:31:28;;;;;;;;;11.75;10.25;;;;;27.03;46.67;101273.44;5104617;27;45463;-80
2022/06/15 11:34:06;;;;;;;;;10.00;8.00;;;;;27.04;45.53;101265.41;5100068;27;45280;-80
2022/06/15 11:36:45;;;;;;;;;9.00;9.00;;;;;27.10;45.57;101272.41;5100310;27;45257;-79
2022/06/15 11:39:25;;;;;;;;;10.50;9.25;;;;;27.13;45.26;101260.84;5100469;27;45189;-79
2022/06/15 11:41:57;;;;;;;;;11.00;10.00;;;;;27.17;45.72;101260.75;5080768;27;47841;-79
2022/06/15 11:44:27;;;;;;;;;10.50;10.25;;;;;27.27;46.30;101265.91;5098238;27;45745;-80
2022/06/15 11:47:12;;;;;;;;;11.25;9.75;;;;;27.31;46.05;101257.00;5080392;27;45461;-80
2022/06/15 11:49:55;;;;;;;;;10.50;9.00;;;;;27.33;45.72;101248.06;5098779;27;45447;-80
2022/06/15 11:52:46;;;;;;;;;10.50;9.00;;;;;27.48;45.73;101262.03;5098948;27;46443;-79
2022/06/15 11:55:30;;;;;;;;;11.50;9.00;;;;;27.54;45.64;101263.69;5079922;27;45322;-79
2022/06/15 11:58:29;;;;;;;;;9.75;9.50;;;;;27.55;44.81;101252.16;5098351;27;45488;-79
2022/06/15 12:01:25;;;;;;;;;8.00;8.00;;;;;27.71;44.76;101272.22;5099587;27;45767;-79
2022/06/15 12:04:27;;;;;;;;;9.00;7.75;;;;;27.80;44.86;101264.09;5098392;27;46244;-78
2022/06/15 12:06:56;;;;;;;;;9.00;8.00;;;;;27.90;44.31;101277.19;5098224;27;45774;-78